sensor_id;sensor_type;location;lat;lon;timestamp;temperature;humidity
13585;DHT22;6863;48.402;9.994;2023-07-20T00:01:58;20.10;70.20
13585;DHT22;6863;48.402;9.994;2023-07-20T00:04:23;20.10;70.20
13585;DHT22;6863;48.402;9.994;2023-07-20T00:06:49;20.00;70.30
13585;DHT22;6863;48.402;9.994;2023-07-20T00:09:14;20.00;70.50
13585;DHT22;6863;48.402;9.994;2023-07-20T00:11:44;19.90;70.90
13585;DHT22;6863;48.402;9.994;2023-07-20T00:14:13;19.90;71.30
13585;DHT22;6863;48.402;9.994;2023-07-20T00:16:38;19.80;71.60
13585;DHT22;6863;48.402;9.994;2023-07-20T00:19:04;19.70;71.70
13585;DHT22;6863;48.402;9.994;2023-07-20T00:21:32;19.70;71.80
13585;DHT22;6863;48.402;9.994;2023-07-20T00:23:57;19.60;72.20
13585;DHT22;6863;48.402;9.994;2023-07-20T00:26:23;19.50;72.40
13585;DHT22;6863;48.402;9.994;2023-07-20T00:28:50;19.50;72.60
13585;DHT22;6863;48.402;9.994;2023-07-20T00:31:17;19.50;72.70
13585;DHT22;6863;48.402;9.994;2023-07-20T00:33:42;19.50;73.00
13585;DHT22;6863;48.402;9.994;2023-07-20T00:36:08;19.50;73.20
13585;DHT22;6863;48.402;9.994;2023-07-20T00:38:33;19.40;73.40
13585;DHT22;6863;48.402;9.994;2023-07-20T00:40:59;19.40;73.60
13585;DHT22;6863;48.402;9.994;2023-07-20T00:43:24;19.40;74.20
13585;DHT22;6863;48.402;9.994;2023-07-20T00:45:50;19.40;74.00
13585;DHT22;6863;48.402;9.994;2023-07-20T00:48:16;19.40;74.30
13585;DHT22;6863;48.402;9.994;2023-07-20T00:50:42;19.30;74.60
13585;DHT22;6863;48.402;9.994;2023-07-20T00:53:07;19.30;75.00
13585;DHT22;6863;48.402;9.994;2023-07-20T00:55:34;19.20;75.00
13585;DHT22;6863;48.402;9.994;2023-07-20T00:58:00;19.20;75.40
13585;DHT22;6863;48.402;9.994;2023-07-20T01:00:25;19.10;75.70
13585;DHT22;6863;48.402;9.994;2023-07-20T01:02:51;19.00;75.50
13585;DHT22;6863;48.402;9.994;2023-07-20T01:05:17;19.00;76.00
13585;DHT22;6863;48.402;9.994;2023-07-20T01:07:51;18.90;76.20
13585;DHT22;6863;48.402;9.994;2023-07-20T01:10:39;18.90;76.00
13585;DHT22;6863;48.402;9.994;2023-07-20T01:13:07;18.80;76.40
13585;DHT22;6863;48.402;9.994;2023-07-20T01:15:34;18.80;75.60
13585;DHT22;6863;48.402;9.994;2023-07-20T01:18:00;18.70;75.50
13585;DHT22;6863;48.402;9.994;2023-07-20T01:20:28;18.70;75.50
13585;DHT22;6863;48.402;9.994;2023-07-20T01:23:34;18.60;76.20
13585;DHT22;6863;48.402;9.994;2023-07-20T01:26:44;18.40;77.00
13585;DHT22;6863;48.402;9.994;2023-07-20T01:29:22;18.50;77.80
13585;DHT22;6863;48.402;9.994;2023-07-20T01:31:54;18.40;77.90
13585;DHT22;6863;48.402;9.994;2023-07-20T01:34:22;18.50;78.90
13585;DHT22;6863;48.402;9.994;2023-07-20T01:36:50;18.40;78.00
13585;DHT22;6863;48.402;9.994;2023-07-20T01:39:17;18.30;78.50
13585;DHT22;6863;48.402;9.994;2023-07-20T01:41:45;18.30;78.80
13585;DHT22;6863;48.402;9.994;2023-07-20T01:44:11;18.20;79.30
13585;DHT22;6863;48.402;9.994;2023-07-20T01:46:37;18.10;79.80
13585;DHT22;6863;48.402;9.994;2023-07-20T01:49:03;18.00;80.30
13585;DHT22;6863;48.402;9.994;2023-07-20T01:51:29;17.90;80.80
13585;DHT22;6863;48.402;9.994;2023-07-20T01:53:54;17.80;81.40
13585;DHT22;6863;48.402;9.994;2023-07-20T01:56:20;17.80;81.10
13585;DHT22;6863;48.402;9.994;2023-07-20T01:58:46;17.70;81.60
13585;DHT22;6863;48.402;9.994;2023-07-20T02:01:11;17.50;82.10
13585;DHT22;6863;48.402;9.994;2023-07-20T02:03:37;17.50;82.30
13585;DHT22;6863;48.402;9.994;2023-07-20T02:06:02;17.40;82.80
13585;DHT22;6863;48.402;9.994;2023-07-20T02:08:28;17.40;82.90
13585;DHT22;6863;48.402;9.994;2023-07-20T02:10:54;17.40;83.40
13585;DHT22;6863;48.402;9.994;2023-07-20T02:13:19;17.40;83.60
13585;DHT22;6863;48.402;9.994;2023-07-20T02:15:45;17.30;83.50
13585;DHT22;6863;48.402;9.994;2023-07-20T02:18:12;17.30;83.70
13585;DHT22;6863;48.402;9.994;2023-07-20T02:20:38;17.30;83.50
13585;DHT22;6863;48.402;9.994;2023-07-20T02:23:05;17.30;83.70
13585;DHT22;6863;48.402;9.994;2023-07-20T02:25:31;17.20;84.00
13585;DHT22;6863;48.402;9.994;2023-07-20T02:27:56;17.20;84.10
13585;DHT22;6863;48.402;9.994;2023-07-20T02:30:22;17.10;84.60
13585;DHT22;6863;48.402;9.994;2023-07-20T02:32:48;16.90;85.20
13585;DHT22;6863;48.402;9.994;2023-07-20T02:35:14;16.90;85.60
13585;DHT22;6863;48.402;9.994;2023-07-20T02:37:40;16.80;86.10
13585;DHT22;6863;48.402;9.994;2023-07-20T02:40:06;16.80;86.50
13585;DHT22;6863;48.402;9.994;2023-07-20T02:42:33;16.70;86.90
13585;DHT22;6863;48.402;9.994;2023-07-20T02:44:58;16.70;87.40
13585;DHT22;6863;48.402;9.994;2023-07-20T02:47:24;16.60;88.00
13585;DHT22;6863;48.402;9.994;2023-07-20T02:49:49;16.50;88.60
13585;DHT22;6863;48.402;9.994;2023-07-20T02:52:15;16.50;89.00
13585;DHT22;6863;48.402;9.994;2023-07-20T02:54:40;16.60;89.10
13585;DHT22;6863;48.402;9.994;2023-07-20T02:57:06;16.50;89.40
13585;DHT22;6863;48.402;9.994;2023-07-20T02:59:32;16.40;89.80
13585;DHT22;6863;48.402;9.994;2023-07-20T03:01:57;16.40;90.10
13585;DHT22;6863;48.402;9.994;2023-07-20T03:04:26;16.50;90.30
13585;DHT22;6863;48.402;9.994;2023-07-20T03:06:52;16.50;90.10
13585;DHT22;6863;48.402;9.994;2023-07-20T03:09:18;16.40;90.00
13585;DHT22;6863;48.402;9.994;2023-07-20T03:11:43;16.30;90.30
13585;DHT22;6863;48.402;9.994;2023-07-20T03:14:09;16.20;90.80
13585;DHT22;6863;48.402;9.994;2023-07-20T03:16:36;16.20;91.00
13585;DHT22;6863;48.402;9.994;2023-07-20T03:19:02;16.10;91.40
13585;DHT22;6863;48.402;9.994;2023-07-20T03:21:27;16.20;91.20
13585;DHT22;6863;48.402;9.994;2023-07-20T03:23:54;16.10;91.40
13585;DHT22;6863;48.402;9.994;2023-07-20T03:26:19;16.10;91.60
13585;DHT22;6863;48.402;9.994;2023-07-20T03:28:45;16.00;91.80
13585;DHT22;6863;48.402;9.994;2023-07-20T03:31:10;16.10;91.80
13585;DHT22;6863;48.402;9.994;2023-07-20T03:33:36;16.00;92.10
13585;DHT22;6863;48.402;9.994;2023-07-20T03:36:02;15.90;92.60
13585;DHT22;6863;48.402;9.994;2023-07-20T03:38:27;15.90;93.10
13585;DHT22;6863;48.402;9.994;2023-07-20T03:40:57;15.90;93.60
13585;DHT22;6863;48.402;9.994;2023-07-20T03:43:24;15.80;93.80
13585;DHT22;6863;48.402;9.994;2023-07-20T03:45:51;15.80;94.00
13585;DHT22;6863;48.402;9.994;2023-07-20T03:48:21;15.70;94.30
13585;DHT22;6863;48.402;9.994;2023-07-20T03:50:50;15.70;94.70
13585;DHT22;6863;48.402;9.994;2023-07-20T03:53:16;15.60;94.90
13585;DHT22;6863;48.402;9.994;2023-07-20T03:55:45;15.60;95.30
13585;DHT22;6863;48.402;9.994;2023-07-20T03:58:12;15.50;95.40
13585;DHT22;6863;48.402;9.994;2023-07-20T04:00:37;15.40;95.70
13585;DHT22;6863;48.402;9.994;2023-07-20T04:03:03;15.40;96.20
13585;DHT22;6863;48.402;9.994;2023-07-20T04:05:28;15.40;96.50
13585;DHT22;6863;48.402;9.994;2023-07-20T04:07:54;15.40;96.80
13585;DHT22;6863;48.402;9.994;2023-07-20T04:10:19;15.40;96.90
13585;DHT22;6863;48.402;9.994;2023-07-20T04:12:45;15.40;97.20
13585;DHT22;6863;48.402;9.994;2023-07-20T04:15:13;15.40;97.50
13585;DHT22;6863;48.402;9.994;2023-07-20T04:17:39;15.40;97.60
13585;DHT22;6863;48.402;9.994;2023-07-20T04:20:05;15.40;97.80
13585;DHT22;6863;48.402;9.994;2023-07-20T04:22:31;15.40;97.80
13585;DHT22;6863;48.402;9.994;2023-07-20T04:24:57;15.30;98.20
13585;DHT22;6863;48.402;9.994;2023-07-20T04:27:22;15.40;98.60
13585;DHT22;6863;48.402;9.994;2023-07-20T04:29:48;15.40;98.20
13585;DHT22;6863;48.402;9.994;2023-07-20T04:32:14;15.40;98.10
13585;DHT22;6863;48.402;9.994;2023-07-20T04:34:39;15.50;97.60
13585;DHT22;6863;48.402;9.994;2023-07-20T04:37:05;15.50;97.40
13585;DHT22;6863;48.402;9.994;2023-07-20T04:39:30;15.50;97.50
13585;DHT22;6863;48.402;9.994;2023-07-20T04:41:56;15.60;97.50
13585;DHT22;6863;48.402;9.994;2023-07-20T04:44:22;15.60;97.30
13585;DHT22;6863;48.402;9.994;2023-07-20T04:46:47;15.70;97.10
13585;DHT22;6863;48.402;9.994;2023-07-20T04:49:13;15.70;96.80
13585;DHT22;6863;48.402;9.994;2023-07-20T04:51:39;15.90;96.40
13585;DHT22;6863;48.402;9.994;2023-07-20T04:54:05;15.90;96.20
13585;DHT22;6863;48.402;9.994;2023-07-20T04:56:30;16.00;96.40
13585;DHT22;6863;48.402;9.994;2023-07-20T04:58:56;16.00;96.00
13585;DHT22;6863;48.402;9.994;2023-07-20T05:01:23;16.10;95.70
13585;DHT22;6863;48.402;9.994;2023-07-20T05:03:48;16.20;95.20
13585;DHT22;6863;48.402;9.994;2023-07-20T05:06:14;16.30;94.90
13585;DHT22;6863;48.402;9.994;2023-07-20T05:08:40;16.30;94.60
13585;DHT22;6863;48.402;9.994;2023-07-20T05:11:06;16.30;94.60
13585;DHT22;6863;48.402;9.994;2023-07-20T05:13:32;16.50;94.70
13585;DHT22;6863;48.402;9.994;2023-07-20T05:15:58;16.50;94.50
13585;DHT22;6863;48.402;9.994;2023-07-20T05:18:24;16.60;94.40
13585;DHT22;6863;48.402;9.994;2023-07-20T05:20:50;16.60;94.00
13585;DHT22;6863;48.402;9.994;2023-07-20T05:23:17;16.70;94.00
13585;DHT22;6863;48.402;9.994;2023-07-20T05:25:43;16.80;93.80
13585;DHT22;6863;48.402;9.994;2023-07-20T05:28:09;17.00;93.10
13585;DHT22;6863;48.402;9.994;2023-07-20T05:30:34;17.20;92.60
13585;DHT22;6863;48.402;9.994;2023-07-20T05:33:00;17.50;92.00
13585;DHT22;6863;48.402;9.994;2023-07-20T05:35:26;17.60;91.50
13585;DHT22;6863;48.402;9.994;2023-07-20T05:37:52;17.80;90.60
13585;DHT22;6863;48.402;9.994;2023-07-20T05:40:17;17.90;90.30
13585;DHT22;6863;48.402;9.994;2023-07-20T05:42:45;18.10;90.00
13585;DHT22;6863;48.402;9.994;2023-07-20T05:45:17;18.30;89.40
13585;DHT22;6863;48.402;9.994;2023-07-20T05:47:43;18.50;88.80
13585;DHT22;6863;48.402;9.994;2023-07-20T05:50:09;18.70;88.00
13585;DHT22;6863;48.402;9.994;2023-07-20T05:52:35;18.90;86.30
13585;DHT22;6863;48.402;9.994;2023-07-20T05:55:00;18.90;85.90
13585;DHT22;6863;48.402;9.994;2023-07-20T05:57:26;18.90;85.00
13585;DHT22;6863;48.402;9.994;2023-07-20T05:59:52;19.00;85.60
13585;DHT22;6863;48.402;9.994;2023-07-20T06:02:17;19.10;85.80
13585;DHT22;6863;48.402;9.994;2023-07-20T06:04:43;19.20;84.30
13585;DHT22;6863;48.402;9.994;2023-07-20T06:07:08;19.30;83.70
13585;DHT22;6863;48.402;9.994;2023-07-20T06:09:34;19.40;83.80
13585;DHT22;6863;48.402;9.994;2023-07-20T06:12:00;19.50;83.20
13585;DHT22;6863;48.402;9.994;2023-07-20T06:14:25;19.70;82.30
13585;DHT22;6863;48.402;9.994;2023-07-20T06:16:51;19.90;81.40
13585;DHT22;6863;48.402;9.994;2023-07-20T06:19:17;20.10;80.50
13585;DHT22;6863;48.402;9.994;2023-07-20T06:21:43;20.10;80.60
13585;DHT22;6863;48.402;9.994;2023-07-20T06:24:08;20.20;79.90
13585;DHT22;6863;48.402;9.994;2023-07-20T06:26:34;20.30;79.80
13585;DHT22;6863;48.402;9.994;2023-07-20T06:29:05;20.20;79.10
13585;DHT22;6863;48.402;9.994;2023-07-20T06:31:32;19.90;79.50
13585;DHT22;6863;48.402;9.994;2023-07-20T06:33:57;19.70;80.30
13585;DHT22;6863;48.402;9.994;2023-07-20T06:36:23;19.60;80.90
13585;DHT22;6863;48.402;9.994;2023-07-20T06:38:48;19.70;80.70
13585;DHT22;6863;48.402;9.994;2023-07-20T06:41:14;19.70;80.50
13585;DHT22;6863;48.402;9.994;2023-07-20T06:43:39;19.90;80.10
13585;DHT22;6863;48.402;9.994;2023-07-20T06:46:05;20.20;79.60
13585;DHT22;6863;48.402;9.994;2023-07-20T06:48:30;20.70;78.40
13585;DHT22;6863;48.402;9.994;2023-07-20T06:50:56;20.90;77.20
13585;DHT22;6863;48.402;9.994;2023-07-20T06:53:22;21.00;76.70
13585;DHT22;6863;48.402;9.994;2023-07-20T06:55:47;21.20;76.20
13585;DHT22;6863;48.402;9.994;2023-07-20T06:58:13;21.40;75.50
13585;DHT22;6863;48.402;9.994;2023-07-20T07:00:39;21.50;75.00
13585;DHT22;6863;48.402;9.994;2023-07-20T07:03:04;21.60;73.90
13585;DHT22;6863;48.402;9.994;2023-07-20T07:05:30;21.50;73.60
13585;DHT22;6863;48.402;9.994;2023-07-20T07:07:55;21.20;74.70
13585;DHT22;6863;48.402;9.994;2023-07-20T07:10:23;21.00;75.20
13585;DHT22;6863;48.402;9.994;2023-07-20T07:12:49;21.10;75.50
13585;DHT22;6863;48.402;9.994;2023-07-20T07:15:15;21.60;74.50
13585;DHT22;6863;48.402;9.994;2023-07-20T07:17:40;21.50;74.40
13585;DHT22;6863;48.402;9.994;2023-07-20T07:20:07;21.70;73.70
13585;DHT22;6863;48.402;9.994;2023-07-20T07:22:34;21.50;73.10
13585;DHT22;6863;48.402;9.994;2023-07-20T07:24:59;21.30;73.50
13585;DHT22;6863;48.402;9.994;2023-07-20T07:27:25;21.30;73.40
13585;DHT22;6863;48.402;9.994;2023-07-20T07:29:50;21.60;73.20
13585;DHT22;6863;48.402;9.994;2023-07-20T07:32:16;22.00;72.10
13585;DHT22;6863;48.402;9.994;2023-07-20T07:34:41;22.40;71.20
13585;DHT22;6863;48.402;9.994;2023-07-20T07:37:07;22.60;70.50
13585;DHT22;6863;48.402;9.994;2023-07-20T07:39:33;22.80;70.50
13585;DHT22;6863;48.402;9.994;2023-07-20T07:41:58;22.80;69.70
13585;DHT22;6863;48.402;9.994;2023-07-20T07:44:24;22.80;69.50
13585;DHT22;6863;48.402;9.994;2023-07-20T07:46:50;22.60;69.40
13585;DHT22;6863;48.402;9.994;2023-07-20T07:49:16;22.70;69.40
13585;DHT22;6863;48.402;9.994;2023-07-20T07:51:42;22.60;69.40
13585;DHT22;6863;48.402;9.994;2023-07-20T07:54:07;22.70;69.80
13585;DHT22;6863;48.402;9.994;2023-07-20T07:56:33;22.90;68.40
13585;DHT22;6863;48.402;9.994;2023-07-20T07:58:58;23.00;67.70
13585;DHT22;6863;48.402;9.994;2023-07-20T08:01:24;23.10;67.40
13585;DHT22;6863;48.402;9.994;2023-07-20T08:03:50;23.20;67.20
13585;DHT22;6863;48.402;9.994;2023-07-20T08:06:16;23.20;66.80
13585;DHT22;6863;48.402;9.994;2023-07-20T08:08:42;23.10;67.50
13585;DHT22;6863;48.402;9.994;2023-07-20T08:11:08;22.80;68.00
13585;DHT22;6863;48.402;9.994;2023-07-20T08:13:34;22.60;68.20
13585;DHT22;6863;48.402;9.994;2023-07-20T08:16:01;22.90;67.80
13585;DHT22;6863;48.402;9.994;2023-07-20T08:18:28;23.10;67.30
13585;DHT22;6863;48.402;9.994;2023-07-20T08:20:53;22.70;67.30
13585;DHT22;6863;48.402;9.994;2023-07-20T08:23:19;22.90;67.70
13585;DHT22;6863;48.402;9.994;2023-07-20T08:25:45;23.30;66.40
13585;DHT22;6863;48.402;9.994;2023-07-20T08:28:11;23.20;66.50
13585;DHT22;6863;48.402;9.994;2023-07-20T08:30:47;23.90;66.00
13585;DHT22;6863;48.402;9.994;2023-07-20T08:33:14;24.60;63.60
13585;DHT22;6863;48.402;9.994;2023-07-20T08:35:40;24.70;63.70
13585;DHT22;6863;48.402;9.994;2023-07-20T08:38:06;25.10;62.50
13585;DHT22;6863;48.402;9.994;2023-07-20T08:40:38;25.30;61.30
13585;DHT22;6863;48.402;9.994;2023-07-20T08:43:04;25.20;61.20
13585;DHT22;6863;48.402;9.994;2023-07-20T08:45:33;24.90;61.10
13585;DHT22;6863;48.402;9.994;2023-07-20T08:48:00;25.10;60.50
13585;DHT22;6863;48.402;9.994;2023-07-20T08:50:27;25.60;57.50
13585;DHT22;6863;48.402;9.994;2023-07-20T08:52:55;25.60;56.80
13585;DHT22;6863;48.402;9.994;2023-07-20T08:55:22;26.30;55.60
13585;DHT22;6863;48.402;9.994;2023-07-20T08:57:50;26.50;54.70
13585;DHT22;6863;48.402;9.994;2023-07-20T09:00:20;26.70;53.90
13585;DHT22;6863;48.402;9.994;2023-07-20T09:02:47;27.30;53.40
13585;DHT22;6863;48.402;9.994;2023-07-20T09:05:13;27.20;53.30
13585;DHT22;6863;48.402;9.994;2023-07-20T09:07:40;27.40;52.10
13585;DHT22;6863;48.402;9.994;2023-07-20T09:10:07;27.40;52.20
13585;DHT22;6863;48.402;9.994;2023-07-20T09:12:37;27.60;51.80
13585;DHT22;6863;48.402;9.994;2023-07-20T09:15:04;27.50;52.50
13585;DHT22;6863;48.402;9.994;2023-07-20T09:17:30;27.30;52.60
13585;DHT22;6863;48.402;9.994;2023-07-20T09:19:55;26.40;54.20
13585;DHT22;6863;48.402;9.994;2023-07-20T09:22:21;25.50;56.00
13585;DHT22;6863;48.402;9.994;2023-07-20T09:24:47;25.90;56.70
13585;DHT22;6863;48.402;9.994;2023-07-20T09:27:12;27.20;54.70
13585;DHT22;6863;48.402;9.994;2023-07-20T09:29:50;28.70;52.50
13585;DHT22;6863;48.402;9.994;2023-07-20T09:32:20;30.10;46.50
13585;DHT22;6863;48.402;9.994;2023-07-20T09:34:46;29.70;46.40
13585;DHT22;6863;48.402;9.994;2023-07-20T09:37:12;28.70;44.90
13585;DHT22;6863;48.402;9.994;2023-07-20T09:39:44;28.30;45.90
13585;DHT22;6863;48.402;9.994;2023-07-20T09:42:11;28.60;45.30
13585;DHT22;6863;48.402;9.994;2023-07-20T09:44:44;30.30;43.60
13585;DHT22;6863;48.402;9.994;2023-07-20T09:47:10;29.90;41.70
13585;DHT22;6863;48.402;9.994;2023-07-20T09:49:41;30.80;40.60
13585;DHT22;6863;48.402;9.994;2023-07-20T09:52:08;30.00;40.20
13585;DHT22;6863;48.402;9.994;2023-07-20T09:54:38;29.60;41.60
13585;DHT22;6863;48.402;9.994;2023-07-20T09:57:07;29.30;40.40
13585;DHT22;6863;48.402;9.994;2023-07-20T09:59:33;28.80;41.40
13585;DHT22;6863;48.402;9.994;2023-07-20T10:02:01;27.80;42.80
13585;DHT22;6863;48.402;9.994;2023-07-20T10:04:28;27.40;44.30
13585;DHT22;6863;48.402;9.994;2023-07-20T10:06:59;27.90;43.90
13585;DHT22;6863;48.402;9.994;2023-07-20T10:09:26;28.10;42.70
13585;DHT22;6863;48.402;9.994;2023-07-20T10:11:53;29.50;41.30
13585;DHT22;6863;48.402;9.994;2023-07-20T10:14:22;30.80;39.80
13585;DHT22;6863;48.402;9.994;2023-07-20T10:16:57;31.20;37.60
13585;DHT22;6863;48.402;9.994;2023-07-20T10:19:47;31.50;37.50
13585;DHT22;6863;48.402;9.994;2023-07-20T10:22:19;32.90;35.70
13585;DHT22;6863;48.402;9.994;2023-07-20T10:24:46;34.90;33.50
13585;DHT22;6863;48.402;9.994;2023-07-20T10:27:13;36.70;30.30
13585;DHT22;6863;48.402;9.994;2023-07-20T10:29:41;37.60;29.20
13585;DHT22;6863;48.402;9.994;2023-07-20T10:32:08;39.20;27.20
13585;DHT22;6863;48.402;9.994;2023-07-20T10:34:34;39.90;25.80
13585;DHT22;6863;48.402;9.994;2023-07-20T10:37:00;38.30;27.00
13585;DHT22;6863;48.402;9.994;2023-07-20T10:39:27;37.70;28.00
13585;DHT22;6863;48.402;9.994;2023-07-20T10:42:06;36.20;28.40
13585;DHT22;6863;48.402;9.994;2023-07-20T10:44:32;36.80;27.90
13585;DHT22;6863;48.402;9.994;2023-07-20T10:47:09;37.20;27.00
13585;DHT22;6863;48.402;9.994;2023-07-20T10:49:35;38.40;26.90
13585;DHT22;6863;48.402;9.994;2023-07-20T10:52:20;39.00;25.40
13585;DHT22;6863;48.402;9.994;2023-07-20T10:54:49;39.20;25.30
13585;DHT22;6863;48.402;9.994;2023-07-20T10:57:23;40.20;24.70
13585;DHT22;6863;48.402;9.994;2023-07-20T10:59:49;39.80;23.90
13585;DHT22;6863;48.402;9.994;2023-07-20T11:02:18;39.40;24.50
13585;DHT22;6863;48.402;9.994;2023-07-20T11:04:46;38.60;24.50
13585;DHT22;6863;48.402;9.994;2023-07-20T11:07:17;38.20;24.90
13585;DHT22;6863;48.402;9.994;2023-07-20T11:09:43;38.60;24.90
13585;DHT22;6863;48.402;9.994;2023-07-20T11:12:11;38.00;25.40
13585;DHT22;6863;48.402;9.994;2023-07-20T11:14:52;38.20;25.20
13585;DHT22;6863;48.402;9.994;2023-07-20T11:17:19;38.60;25.00
13585;DHT22;6863;48.402;9.994;2023-07-20T11:19:55;38.10;25.20
13585;DHT22;6863;48.402;9.994;2023-07-20T11:22:21;38.30;25.90
13585;DHT22;6863;48.402;9.994;2023-07-20T11:24:47;39.40;24.10
13585;DHT22;6863;48.402;9.994;2023-07-20T11:27:14;39.40;24.70
13585;DHT22;6863;48.402;9.994;2023-07-20T11:29:40;39.80;24.70
13585;DHT22;6863;48.402;9.994;2023-07-20T11:32:06;39.00;24.20
13585;DHT22;6863;48.402;9.994;2023-07-20T11:34:33;36.80;25.20
13585;DHT22;6863;48.402;9.994;2023-07-20T11:36:59;36.30;26.00
13585;DHT22;6863;48.402;9.994;2023-07-20T11:39:25;35.90;26.20
13585;DHT22;6863;48.402;9.994;2023-07-20T11:41:53;36.60;26.00
13585;DHT22;6863;48.402;9.994;2023-07-20T11:44:23;37.40;25.30
13585;DHT22;6863;48.402;9.994;2023-07-20T11:47:12;38.80;24.40
13585;DHT22;6863;48.402;9.994;2023-07-20T11:49:42;40.00;22.90
13585;DHT22;6863;48.402;9.994;2023-07-20T11:52:10;41.70;21.50
13585;DHT22;6863;48.402;9.994;2023-07-20T11:54:40;42.80;21.00
13585;DHT22;6863;48.402;9.994;2023-07-20T11:57:06;43.00;20.70
13585;DHT22;6863;48.402;9.994;2023-07-20T11:59:32;40.60;21.70
13585;DHT22;6863;48.402;9.994;2023-07-20T12:02:03;40.10;22.60
13585;DHT22;6863;48.402;9.994;2023-07-20T12:04:31;40.90;22.30
13585;DHT22;6863;48.402;9.994;2023-07-20T12:06:58;41.30;22.90
13585;DHT22;6863;48.402;9.994;2023-07-20T12:09:24;40.10;23.70
13585;DHT22;6863;48.402;9.994;2023-07-20T12:11:50;38.10;23.90
13585;DHT22;6863;48.402;9.994;2023-07-20T12:14:16;35.50;26.00
13585;DHT22;6863;48.402;9.994;2023-07-20T12:16:42;35.10;26.70
13585;DHT22;6863;48.402;9.994;2023-07-20T12:19:13;34.50;27.20
13585;DHT22;6863;48.402;9.994;2023-07-20T12:21:40;33.30;28.50
13585;DHT22;6863;48.402;9.994;2023-07-20T12:24:08;32.80;29.60
13585;DHT22;6863;48.402;9.994;2023-07-20T12:26:37;33.70;28.70
13585;DHT22;6863;48.402;9.994;2023-07-20T12:29:03;33.50;28.90
13585;DHT22;6863;48.402;9.994;2023-07-20T12:31:29;33.30;29.20
13585;DHT22;6863;48.402;9.994;2023-07-20T12:33:56;33.00;28.80
13585;DHT22;6863;48.402;9.994;2023-07-20T12:36:22;33.00;29.30
13585;DHT22;6863;48.402;9.994;2023-07-20T12:38:48;34.10;28.30
13585;DHT22;6863;48.402;9.994;2023-07-20T12:41:14;36.50;27.20
13585;DHT22;6863;48.402;9.994;2023-07-20T12:43:43;39.10;24.60
13585;DHT22;6863;48.402;9.994;2023-07-20T12:46:13;38.60;25.00
13585;DHT22;6863;48.402;9.994;2023-07-20T12:48:39;39.60;24.70
13585;DHT22;6863;48.402;9.994;2023-07-20T12:51:07;41.10;22.40
13585;DHT22;6863;48.402;9.994;2023-07-20T12:53:33;42.30;21.80
13585;DHT22;6863;48.402;9.994;2023-07-20T12:55:59;42.00;21.70
13585;DHT22;6863;48.402;9.994;2023-07-20T12:58:26;41.40;22.10
13585;DHT22;6863;48.402;9.994;2023-07-20T13:03:23;44.30;20.00
13585;DHT22;6863;48.402;9.994;2023-07-20T13:05:49;43.80;20.00
13585;DHT22;6863;48.402;9.994;2023-07-20T13:08:15;42.80;21.10
13585;DHT22;6863;48.402;9.994;2023-07-20T13:10:41;41.20;22.00
13585;DHT22;6863;48.402;9.994;2023-07-20T13:13:07;41.70;22.30
13585;DHT22;6863;48.402;9.994;2023-07-20T13:15:41;41.30;22.40
13585;DHT22;6863;48.402;9.994;2023-07-20T13:18:07;41.90;21.90
13585;DHT22;6863;48.402;9.994;2023-07-20T13:20:32;41.10;21.90
13585;DHT22;6863;48.402;9.994;2023-07-20T13:22:58;40.70;21.90
13585;DHT22;6863;48.402;9.994;2023-07-20T13:25:24;41.80;21.00
13585;DHT22;6863;48.402;9.994;2023-07-20T13:27:50;41.90;20.90
13585;DHT22;6863;48.402;9.994;2023-07-20T13:30:16;41.20;21.10
13585;DHT22;6863;48.402;9.994;2023-07-20T13:32:43;40.40;21.90
13585;DHT22;6863;48.402;9.994;2023-07-20T13:35:09;39.80;22.10
13585;DHT22;6863;48.402;9.994;2023-07-20T13:37:35;39.40;22.70
13585;DHT22;6863;48.402;9.994;2023-07-20T13:40:00;39.90;22.60
13585;DHT22;6863;48.402;9.994;2023-07-20T13:42:26;41.80;21.30
13585;DHT22;6863;48.402;9.994;2023-07-20T13:44:52;42.60;20.80
13585;DHT22;6863;48.402;9.994;2023-07-20T13:47:17;43.00;20.20
13585;DHT22;6863;48.402;9.994;2023-07-20T13:49:43;43.60;19.90
13585;DHT22;6863;48.402;9.994;2023-07-20T13:52:09;42.90;20.90
13585;DHT22;6863;48.402;9.994;2023-07-20T13:54:35;42.70;20.40
13585;DHT22;6863;48.402;9.994;2023-07-20T13:57:00;42.10;21.10
13585;DHT22;6863;48.402;9.994;2023-07-20T13:59:26;40.70;22.10
13585;DHT22;6863;48.402;9.994;2023-07-20T14:01:51;38.60;23.40
13585;DHT22;6863;48.402;9.994;2023-07-20T14:04:17;37.50;24.30
13585;DHT22;6863;48.402;9.994;2023-07-20T14:06:42;36.20;24.60
13585;DHT22;6863;48.402;9.994;2023-07-20T14:09:09;36.60;24.90
13585;DHT22;6863;48.402;9.994;2023-07-20T14:11:34;38.00;24.00
13585;DHT22;6863;48.402;9.994;2023-07-20T14:14:00;39.50;22.80
13585;DHT22;6863;48.402;9.994;2023-07-20T14:16:25;40.20;22.70
13585;DHT22;6863;48.402;9.994;2023-07-20T14:18:51;41.30;21.30
13585;DHT22;6863;48.402;9.994;2023-07-20T14:21:18;41.10;21.60
13585;DHT22;6863;48.402;9.994;2023-07-20T14:23:48;40.40;21.90
13585;DHT22;6863;48.402;9.994;2023-07-20T14:26:15;37.00;23.60
13585;DHT22;6863;48.402;9.994;2023-07-20T14:28:41;35.00;25.40
13585;DHT22;6863;48.402;9.994;2023-07-20T14:31:07;33.20;27.30
13585;DHT22;6863;48.402;9.994;2023-07-20T14:33:32;31.90;28.60
13585;DHT22;6863;48.402;9.994;2023-07-20T14:35:58;31.40;29.10
13585;DHT22;6863;48.402;9.994;2023-07-20T14:38:23;31.30;29.80
13585;DHT22;6863;48.402;9.994;2023-07-20T14:40:49;32.60;28.90
13585;DHT22;6863;48.402;9.994;2023-07-20T14:43:15;34.20;27.00
13585;DHT22;6863;48.402;9.994;2023-07-20T14:45:41;34.40;26.80
13585;DHT22;6863;48.402;9.994;2023-07-20T14:48:07;34.70;26.90
13585;DHT22;6863;48.402;9.994;2023-07-20T14:50:33;34.90;27.30
13585;DHT22;6863;48.402;9.994;2023-07-20T14:52:58;34.70;27.30
13585;DHT22;6863;48.402;9.994;2023-07-20T14:55:25;35.50;26.40
13585;DHT22;6863;48.402;9.994;2023-07-20T14:57:50;35.00;26.80
13585;DHT22;6863;48.402;9.994;2023-07-20T15:00:16;34.70;26.60
13585;DHT22;6863;48.402;9.994;2023-07-20T15:02:42;34.50;26.80
13585;DHT22;6863;48.402;9.994;2023-07-20T15:05:10;34.30;27.00
13585;DHT22;6863;48.402;9.994;2023-07-20T15:07:36;33.90;28.10
13585;DHT22;6863;48.402;9.994;2023-07-20T15:10:03;33.70;28.30
13585;DHT22;6863;48.402;9.994;2023-07-20T15:12:32;33.50;28.30
13585;DHT22;6863;48.402;9.994;2023-07-20T15:17:34;32.10;29.20
13585;DHT22;6863;48.402;9.994;2023-07-20T15:20:01;31.70;29.80
13585;DHT22;6863;48.402;9.994;2023-07-20T15:22:30;31.60;29.80
13585;DHT22;6863;48.402;9.994;2023-07-20T15:24:56;31.60;29.70
13585;DHT22;6863;48.402;9.994;2023-07-20T15:27:22;31.40;30.40
13585;DHT22;6863;48.402;9.994;2023-07-20T15:29:48;31.00;30.50
13585;DHT22;6863;48.402;9.994;2023-07-20T15:32:14;30.30;30.50
13585;DHT22;6863;48.402;9.994;2023-07-20T15:34:42;29.80;31.80
13585;DHT22;6863;48.402;9.994;2023-07-20T15:37:08;29.70;32.30
13585;DHT22;6863;48.402;9.994;2023-07-20T15:39:35;29.60;31.90
13585;DHT22;6863;48.402;9.994;2023-07-20T15:42:01;28.90;32.50
13585;DHT22;6863;48.402;9.994;2023-07-20T15:44:26;28.80;33.20
13585;DHT22;6863;48.402;9.994;2023-07-20T15:46:52;28.80;33.10
13585;DHT22;6863;48.402;9.994;2023-07-20T15:49:18;28.60;33.40